createdAt,value
2023-04-10T00:02:27.299Z,65.25
2023-04-10T00:04:54.423Z,65.37
2023-04-10T00:07:21.683Z,65.18
2023-04-10T00:09:48.706Z,65.59
2023-04-10T00:12:16.137Z,65.76
2023-04-10T00:14:43.217Z,66.11
2023-04-10T00:17:12.429Z,66.02
2023-04-10T00:19:39.349Z,66.37
2023-04-10T00:22:06.365Z,66.15
2023-04-10T00:24:36.323Z,66.48
2023-04-10T00:27:05.891Z,66.25
2023-04-10T00:29:32.869Z,66.30
2023-04-10T00:32:01.114Z,66.56
2023-04-10T00:34:30.076Z,66.83
2023-04-10T00:36:56.856Z,67.16
2023-04-10T00:39:23.827Z,66.77
2023-04-10T00:41:51.115Z,66.88
2023-04-10T00:44:18.033Z,67.15
2023-04-10T00:46:45.144Z,67.17
2023-04-10T00:49:12.205Z,67.48
2023-04-10T00:51:42.123Z,67.59
2023-04-10T00:54:10.715Z,68.05
2023-04-10T00:56:38.130Z,67.94
2023-04-10T00:59:07.512Z,67.59
2023-04-10T01:01:36.768Z,68.12
2023-04-10T01:04:06.110Z,67.90
2023-04-10T01:07:00.811Z,67.62
2023-04-10T01:10:12.878Z,67.81
2023-04-10T01:12:48.691Z,67.98
2023-04-10T01:15:27.242Z,67.73
2023-04-10T01:18:13.959Z,67.99
2023-04-10T01:20:42.345Z,67.60
2023-04-10T01:23:53.474Z,67.43
2023-04-10T01:26:37.167Z,67.61
2023-04-10T01:29:10.094Z,68.03
2023-04-10T01:31:42.653Z,67.57
2023-04-10T01:34:20.205Z,67.92
2023-04-10T01:37:01.373Z,67.89
2023-04-10T01:39:30.840Z,67.71
2023-04-10T01:42:00.167Z,67.19
2023-04-10T01:44:30.549Z,67.63
2023-04-10T01:46:58.968Z,67.49
2023-04-10T01:49:32.975Z,67.62
2023-04-10T01:52:03.812Z,67.82
2023-04-10T01:54:36.826Z,68.02
2023-04-10T01:57:04.864Z,67.77
2023-04-10T01:59:34.165Z,67.83
2023-04-10T02:02:01.856Z,67.83
2023-04-10T02:04:28.910Z,67.45
2023-04-10T02:07:06.836Z,67.73
2023-04-10T02:10:07.252Z,67.81
2023-04-10T02:12:41.825Z,67.65
2023-04-10T02:15:10.598Z,68.10
2023-04-10T02:17:40.002Z,67.78
2023-04-10T02:20:09.216Z,67.79
2023-04-10T02:22:37.551Z,67.73
2023-04-10T02:25:06.249Z,67.90
2023-04-10T02:27:37.575Z,67.78
2023-04-10T02:30:05.543Z,67.77
2023-04-10T02:32:37.247Z,67.83
2023-04-10T02:35:07.665Z,67.37
2023-04-10T02:37:36.373Z,67.81
2023-04-10T02:40:03.493Z,67.77
2023-04-10T02:42:30.592Z,67.88
2023-04-10T02:44:57.741Z,68.41
2023-04-10T02:47:24.804Z,68.28
2023-04-10T02:49:51.966Z,68.28
2023-04-10T02:52:18.928Z,68.53
2023-04-10T02:54:46.475Z,68.61
2023-04-10T02:57:15.687Z,68.54
2023-04-10T02:59:42.624Z,68.92
2023-04-10T03:02:14.515Z,68.87
2023-04-10T03:04:41.471Z,68.60
2023-04-10T03:07:08.186Z,68.80
2023-04-10T03:09:35.211Z,68.67
2023-04-10T03:12:02.657Z,68.76
2023-04-10T03:14:32.182Z,69.45
2023-04-10T03:16:58.932Z,69.13
2023-04-10T03:19:28.181Z,69.01
2023-04-10T03:21:55.123Z,69.13
2023-04-10T03:24:21.966Z,69.22
2023-04-10T03:26:48.701Z,69.60
2023-04-10T03:29:19.295Z,69.67
2023-04-10T03:31:46.219Z,69.78
2023-04-10T03:34:13.039Z,70.02
2023-04-10T03:36:39.833Z,70.25
2023-04-10T03:39:06.823Z,70.23
2023-04-10T03:41:36.401Z,70.31
2023-04-10T03:44:04.056Z,70.45
2023-04-10T03:46:30.979Z,69.90
2023-04-10T03:48:57.878Z,69.97
2023-04-10T03:51:27.727Z,70.32
2023-04-10T03:53:57.036Z,70.45
2023-04-10T03:56:23.876Z,70.83
2023-04-10T03:58:50.952Z,70.45
2023-04-10T04:01:17.929Z,70.69
2023-04-10T04:03:50.707Z,70.71
2023-04-10T04:06:17.762Z,71.11
2023-04-10T04:08:49.480Z,70.72
2023-04-10T04:11:21.035Z,70.68
2023-04-10T04:13:53.101Z,71.27
2023-04-10T04:16:22.939Z,71.27
2023-04-10T04:18:50.009Z,71.16
2023-04-10T04:21:16.950Z,71.26
2023-04-10T04:23:44.773Z,71.04
2023-04-10T04:26:14.772Z,71.04
2023-04-10T04:28:41.721Z,71.46
2023-04-10T04:31:11.262Z,71.65
2023-04-10T04:33:38.125Z,71.13
2023-04-10T04:36:07.783Z,71.41
2023-04-10T04:38:34.613Z,71.39
2023-04-10T04:41:01.552Z,71.64
2023-04-10T04:43:28.539Z,71.58
2023-04-10T04:45:55.263Z,71.57
2023-04-10T04:48:24.375Z,71.13
2023-04-10T04:50:51.016Z,71.11
2023-04-10T04:53:17.706Z,71.25
2023-04-10T04:55:44.412Z,70.92
2023-04-10T04:58:11.185Z,71.07
2023-04-10T05:00:37.865Z,71.02
2023-04-10T05:03:06.896Z,71.30
2023-04-10T05:05:34.475Z,71.06
2023-04-10T05:08:01.653Z,71.08
2023-04-10T05:10:28.872Z,71.26
2023-04-10T05:12:58.201Z,71.33
2023-04-10T05:15:32.961Z,70.88
2023-04-10T05:18:02.626Z,71.16
2023-04-10T05:20:34.903Z,70.64
2023-04-10T05:23:05.693Z,70.62
2023-04-10T05:25:32.566Z,70.92
2023-04-10T05:28:01.939Z,70.76
2023-04-10T05:30:30.248Z,70.37
2023-04-10T05:33:00.018Z,70.20
2023-04-10T05:35:26.774Z,70.36
2023-04-10T05:37:53.774Z,69.77
2023-04-10T05:40:24.062Z,69.60
2023-04-10T05:42:51.226Z,69.61
2023-04-10T05:45:18.762Z,69.11
2023-04-10T05:47:48.135Z,68.75
2023-04-10T05:50:18.293Z,68.46
2023-04-10T05:52:46.886Z,68.49
2023-04-10T05:55:13.729Z,68.04
2023-04-10T05:57:40.842Z,67.85
2023-04-10T06:00:09.496Z,67.36
2023-04-10T06:02:41.866Z,66.77
2023-04-10T06:05:09.200Z,66.58
2023-04-10T06:07:36.264Z,65.65
2023-04-10T06:10:03.244Z,65.68
2023-04-10T06:12:30.178Z,65.48
2023-04-10T06:14:56.840Z,65.65
2023-04-10T06:17:25.858Z,65.69
2023-04-10T06:19:52.755Z,65.21
2023-04-10T06:22:21.655Z,65.73
2023-04-10T06:24:51.819Z,65.53
2023-04-10T06:27:18.647Z,65.21
2023-04-10T06:30:03.877Z,65.38
2023-04-10T06:32:30.936Z,64.74
2023-04-10T06:34:57.875Z,64.76
2023-04-10T06:37:31.755Z,65.19
2023-04-10T06:40:07.315Z,64.90
2023-04-10T06:42:35.904Z,64.68
2023-04-10T06:45:06.487Z,64.63
2023-04-10T06:47:33.400Z,64.62
2023-04-10T06:50:04.961Z,64.37
2023-04-10T06:52:32.519Z,63.78
2023-04-10T06:55:01.800Z,63.79
2023-04-10T06:57:28.997Z,63.52
2023-04-10T06:59:57.048Z,63.55
2023-04-10T07:02:24.072Z,63.21
2023-04-10T07:04:53.937Z,63.21
2023-04-10T07:07:20.825Z,63.27
2023-04-10T07:09:47.949Z,63.03
2023-04-10T07:12:14.637Z,62.86
2023-04-10T07:14:44.437Z,62.61
2023-04-10T07:17:13.714Z,62.33
2023-04-10T07:19:42.805Z,62.00
2023-04-10T07:22:09.724Z,61.09
2023-04-10T07:24:38.847Z,60.91
2023-04-10T07:27:05.616Z,60.21
2023-04-10T07:29:32.378Z,59.42
2023-04-10T07:31:59.288Z,59.15
2023-04-10T07:34:26.332Z,58.87
2023-04-10T07:36:53.457Z,58.16
2023-04-10T07:39:20.280Z,57.22
2023-04-10T07:41:47.175Z,55.92
2023-04-10T07:44:14.633Z,54.93
2023-04-10T07:46:41.815Z,53.10
2023-04-10T07:49:08.983Z,51.51
2023-04-10T07:51:36.353Z,50.15
2023-04-10T07:54:04.528Z,48.75
2023-04-10T07:56:33.826Z,47.72
2023-04-10T07:59:03.864Z,46.70
2023-04-10T08:01:30.937Z,45.38
2023-04-10T08:03:58.070Z,44.63
2023-04-10T08:06:27.931Z,44.19
2023-04-10T08:08:55.218Z,44.64
2023-04-10T08:11:29.420Z,45.85
2023-04-10T08:14:02.068Z,46.84
2023-04-10T08:16:30.972Z,47.84
2023-04-10T08:18:58.762Z,48.78
2023-04-10T08:21:29.948Z,49.72
2023-04-10T08:23:58.487Z,50.18
2023-04-10T08:26:27.929Z,50.17
2023-04-10T08:28:58.652Z,50.56
2023-04-10T08:31:27.675Z,50.15
2023-04-10T08:34:14.454Z,49.31
2023-04-10T08:36:45.299Z,49.09
2023-04-10T08:39:14.691Z,48.81
2023-04-10T08:41:41.710Z,49.00
2023-04-10T08:44:10.236Z,49.00
2023-04-10T08:46:40.685Z,49.59
2023-04-10T08:49:20.073Z,50.11
2023-04-10T08:51:57.791Z,50.75
2023-04-10T08:54:36.591Z,51.57
2023-04-10T08:57:09.184Z,51.82
2023-04-10T08:59:40.248Z,50.73
2023-04-10T09:02:10.601Z,51.23
2023-04-10T09:04:38.001Z,51.22
2023-04-10T09:07:09.678Z,51.28
2023-04-10T09:09:36.894Z,51.17
2023-04-10T09:12:04.146Z,51.11
2023-04-10T09:14:35.280Z,51.28
2023-04-10T09:17:15.838Z,51.73
2023-04-10T09:19:47.279Z,52.19
2023-04-10T09:22:14.461Z,52.30
2023-04-10T09:24:44.473Z,52.07
2023-04-10T09:27:27.905Z,52.15
2023-04-10T09:29:55.528Z,52.65
2023-04-10T09:32:45.359Z,52.76
2023-04-10T09:35:16.854Z,52.00
2023-04-10T09:37:47.020Z,51.87
2023-04-10T09:40:25.521Z,51.94
2023-04-10T09:42:53.559Z,51.82
2023-04-10T09:45:22.547Z,51.78
2023-04-10T09:48:07.373Z,51.73
2023-04-10T09:50:40.407Z,51.78
2023-04-10T09:53:09.289Z,51.92
2023-04-10T09:55:38.091Z,51.94
2023-04-10T09:58:06.157Z,51.83
2023-04-10T10:00:40.010Z,51.88
2023-04-10T10:03:10.551Z,51.78
2023-04-10T10:05:43.097Z,51.43
2023-04-10T10:08:11.247Z,51.09
2023-04-10T10:10:46.064Z,50.92
2023-04-10T10:13:22.834Z,50.12
2023-04-10T10:15:54.962Z,50.35
2023-04-10T10:18:25.483Z,50.43
2023-04-10T10:20:55.846Z,50.13
2023-04-10T10:23:23.651Z,50.04
2023-04-10T10:25:51.334Z,50.14
2023-04-10T10:28:19.176Z,49.23
2023-04-10T10:30:49.849Z,49.16
2023-04-10T10:33:21.837Z,48.92
2023-04-10T10:35:50.206Z,48.85
2023-04-10T10:38:18.765Z,48.54
2023-04-10T10:40:51.905Z,48.64
2023-04-10T10:43:38.199Z,48.61
2023-04-10T10:46:09.580Z,48.75
2023-04-10T10:48:36.234Z,48.68
2023-04-10T10:51:04.063Z,48.58
2023-04-10T10:53:31.989Z,48.23
2023-04-10T10:55:58.601Z,48.13
2023-04-10T10:58:50.303Z,47.76
2023-04-10T11:01:20.309Z,47.04
2023-04-10T11:03:48.353Z,46.87
2023-04-10T11:06:19.890Z,46.35
2023-04-10T11:08:49.400Z,46.54
2023-04-10T11:11:24.580Z,46.19
2023-04-10T11:13:58.103Z,45.83
2023-04-10T11:16:47.278Z,45.94
2023-04-10T11:19:19.941Z,45.82
2023-04-10T11:22:04.775Z,45.43
2023-04-10T11:25:00.997Z,45.02
2023-04-10T11:27:54.709Z,44.62
2023-04-10T11:30:36.723Z,44.26
2023-04-10T11:33:05.898Z,43.36
2023-04-10T11:35:34.673Z,43.98
2023-04-10T11:38:11.240Z,43.97
2023-04-10T11:40:56.651Z,43.61
2023-04-10T11:43:24.598Z,43.91
2023-04-10T11:45:59.624Z,43.98
2023-04-10T11:48:28.991Z,43.83
2023-04-10T11:50:57.358Z,44.27
2023-04-10T11:53:30.610Z,44.14
2023-04-10T11:56:00.828Z,43.89
2023-04-10T11:58:30.965Z,44.41
2023-04-10T12:01:04.414Z,44.17
2023-04-10T12:03:47.149Z,44.51
2023-04-10T12:06:16.107Z,44.66
2023-04-10T12:08:50.038Z,44.08
2023-04-10T12:11:26.337Z,44.13
2023-04-10T12:13:58.662Z,43.42
2023-04-10T12:16:27.711Z,44.04
2023-04-10T12:18:56.287Z,44.15
2023-04-10T12:21:24.116Z,44.54
2023-04-10T12:23:54.303Z,44.81
2023-04-10T12:26:24.721Z,45.13
2023-04-10T12:28:55.525Z,44.98
2023-04-10T12:31:37.666Z,45.27
2023-04-10T12:34:05.584Z,45.70
2023-04-10T12:36:34.892Z,45.45
2023-04-10T12:39:03.633Z,45.35
2023-04-10T12:41:34.241Z,45.35
2023-04-10T12:44:14.075Z,46.04
2023-04-10T12:46:45.956Z,46.63
2023-04-10T12:49:17.207Z,46.75
2023-04-10T12:51:49.887Z,46.66
2023-04-10T12:54:34.227Z,47.35
2023-04-10T12:57:02.394Z,47.02
2023-04-10T12:59:30.322Z,47.41
2023-04-10T13:01:57.142Z,47.59
2023-04-10T13:04:24.060Z,48.06
2023-04-10T13:06:56.475Z,48.36
2023-04-10T13:09:23.151Z,47.85
2023-04-10T13:11:52.114Z,48.09
2023-04-10T13:14:18.796Z,48.30
2023-04-10T13:16:47.597Z,48.18
2023-04-10T13:19:16.567Z,48.33
2023-04-10T13:21:43.125Z,48.55
2023-04-10T13:24:12.604Z,48.65
2023-04-10T13:26:42.610Z,48.84
2023-04-10T13:29:09.181Z,48.73
2023-04-10T13:31:35.867Z,48.66
2023-04-10T13:34:05.783Z,48.74
2023-04-10T13:36:32.489Z,48.68
2023-04-10T13:38:59.130Z,48.63
2023-04-10T13:41:25.757Z,48.76
2023-04-10T13:43:55.980Z,48.89
2023-04-10T13:46:22.915Z,48.61
2023-04-10T13:48:49.502Z,48.63
2023-04-10T13:51:16.051Z,48.36
2023-04-10T13:53:42.644Z,48.15
2023-04-10T13:56:12.039Z,48.36
2023-04-10T13:58:45.498Z,48.96
2023-04-10T14:01:14.603Z,49.41
2023-04-10T14:03:43.686Z,49.42
2023-04-10T14:06:10.350Z,49.91
2023-04-10T14:08:39.075Z,50.26
2023-04-10T14:11:06.021Z,50.38
2023-04-10T14:13:32.885Z,50.92
2023-04-10T14:16:01.737Z,51.37
2023-04-10T14:18:28.412Z,51.55
2023-04-10T14:20:55.096Z,51.76
2023-04-10T14:23:23.055Z,52.54
2023-04-10T14:25:52.207Z,53.12
2023-04-10T14:28:21.358Z,54.15
2023-04-10T14:30:50.675Z,54.28
2023-04-10T14:33:24.370Z,54.51
2023-04-10T14:35:53.094Z,54.90
2023-04-10T14:38:19.706Z,55.30
2023-04-10T14:40:52.132Z,55.89
2023-04-10T14:43:20.945Z,55.75
2023-04-10T14:45:52.071Z,56.09
2023-04-10T14:48:19.965Z,56.16
2023-04-10T14:50:49.722Z,56.46
2023-04-10T14:53:16.817Z,56.77
2023-04-10T14:55:48.772Z,57.22
2023-04-10T14:58:15.607Z,57.19
2023-04-10T15:00:43.727Z,57.30
2023-04-10T15:03:13.438Z,57.64
2023-04-10T15:05:42.542Z,58.06
2023-04-10T15:08:09.235Z,58.10
2023-04-10T15:10:38.371Z,58.31
2023-04-10T15:13:06.093Z,58.46
2023-04-10T15:15:32.681Z,58.91
2023-04-10T15:17:59.342Z,59.21
2023-04-10T15:20:26.037Z,59.33
2023-04-10T15:22:52.947Z,59.36
2023-04-10T15:25:19.863Z,59.26
2023-04-10T15:27:46.548Z,59.32
2023-04-10T15:30:13.234Z,59.87
2023-04-10T15:32:39.841Z,59.89
2023-04-10T15:35:09.152Z,60.08
2023-04-10T15:37:36.731Z,60.08
2023-04-10T15:40:04.723Z,60.20
2023-04-10T15:42:31.313Z,60.09
2023-04-10T15:44:57.988Z,60.08
2023-04-10T15:47:24.785Z,60.22
2023-04-10T15:49:51.413Z,60.26
2023-04-10T15:52:18.116Z,59.99
2023-04-10T15:54:44.699Z,60.11
2023-04-10T15:57:11.203Z,60.25
2023-04-10T15:59:37.814Z,60.11
2023-04-10T16:02:06.924Z,60.30
2023-04-10T16:04:35.175Z,60.66
2023-04-10T16:07:01.970Z,60.48
2023-04-10T16:09:31.171Z,60.75
2023-04-10T16:11:58.098Z,61.03
2023-04-10T16:14:24.859Z,60.96
2023-04-10T16:16:51.425Z,61.29
2023-04-10T16:19:30.544Z,61.48
2023-04-10T16:21:57.380Z,61.90
2023-04-10T16:24:24.046Z,62.11
2023-04-10T16:26:50.744Z,62.10
2023-04-10T16:29:19.838Z,62.55
2023-04-10T16:31:46.540Z,62.73
2023-04-10T16:34:13.263Z,63.26
2023-04-10T16:36:42.133Z,63.81
2023-04-10T16:39:08.880Z,64.39
2023-04-10T16:41:35.506Z,64.89
2023-04-10T16:44:04.557Z,65.94
2023-04-10T16:46:33.167Z,66.38
2023-04-10T16:49:02.928Z,67.29
2023-04-10T16:51:31.935Z,67.80
2023-04-10T16:54:00.754Z,68.31
2023-04-10T16:56:27.375Z,68.69
2023-04-10T16:58:54.244Z,69.66
2023-04-10T17:01:26.466Z,70.00
2023-04-10T17:03:54.558Z,70.24
2023-04-10T17:06:21.307Z,71.01
2023-04-10T17:08:48.200Z,71.09
2023-04-10T17:11:14.923Z,71.80
2023-04-10T17:13:42.164Z,72.14
2023-04-10T17:16:09.561Z,72.70
2023-04-10T17:18:36.277Z,72.92
2023-04-10T17:21:05.523Z,73.38
2023-04-10T17:23:32.305Z,73.44
2023-04-10T17:25:59.048Z,73.69
2023-04-10T17:28:26.109Z,74.43
2023-04-10T17:30:52.742Z,74.53
2023-04-10T17:33:21.866Z,74.74
2023-04-10T17:35:51.195Z,75.23
2023-04-10T17:38:18.244Z,75.59
2023-04-10T17:40:44.856Z,75.83
2023-04-10T17:43:11.450Z,76.21
2023-04-10T17:45:41.488Z,76.59
2023-04-10T17:48:08.824Z,76.76
2023-04-10T17:50:35.782Z,77.08
2023-04-10T17:53:02.483Z,77.28
2023-04-10T17:55:29.189Z,77.50
2023-04-10T17:58:00.396Z,78.01
2023-04-10T18:00:27.030Z,78.13
2023-04-10T18:03:00.868Z,78.55
2023-04-10T18:05:32.158Z,78.45
2023-04-10T18:08:00.968Z,78.89
2023-04-10T18:10:27.570Z,79.09
2023-04-10T18:12:58.581Z,79.23
2023-04-10T18:15:25.965Z,79.31
2023-04-10T18:17:52.616Z,79.57
2023-04-10T18:20:20.867Z,79.95
2023-04-10T18:22:50.488Z,80.07
2023-04-10T18:25:20.099Z,80.13
2023-04-10T18:28:09.577Z,80.28
2023-04-10T18:30:39.106Z,80.55
2023-04-10T18:33:09.977Z,80.65
2023-04-10T18:35:37.902Z,80.79
2023-04-10T18:38:09.236Z,81.15
2023-04-10T18:40:36.905Z,81.11
2023-04-10T18:43:06.089Z,81.04
2023-04-10T18:45:37.453Z,81.15
2023-04-10T18:48:04.226Z,81.40
2023-04-10T18:50:36.912Z,85.52
2023-04-10T18:53:05.723Z,84.60
2023-04-10T18:55:34.724Z,83.99
2023-04-10T18:58:01.520Z,83.57
2023-04-10T19:00:28.217Z,83.29
2023-04-10T19:02:55.670Z,83.39
2023-04-10T19:05:22.552Z,83.33
2023-04-10T19:08:00.548Z,83.39
2023-04-10T19:10:32.279Z,83.13
2023-04-10T19:13:01.309Z,83.25
2023-04-10T19:15:30.122Z,83.18
2023-04-10T19:17:56.970Z,83.05
2023-04-10T19:20:48.933Z,86.06
2023-04-10T19:23:11.216Z,85.16
2023-04-10T19:25:38.031Z,84.89
2023-04-10T19:28:04.674Z,84.56
2023-04-10T19:30:31.301Z,84.35
2023-04-10T19:33:00.542Z,84.37
2023-04-10T19:35:27.274Z,84.19
2023-04-10T19:37:57.805Z,86.28
2023-04-10T19:40:26.779Z,85.68
2023-04-10T19:42:53.566Z,85.02
2023-04-10T19:45:27.266Z,85.01
2023-04-10T19:47:56.282Z,84.97
2023-04-10T19:50:23.067Z,84.76
2023-04-10T19:52:49.865Z,84.71
2023-04-10T19:55:18.757Z,84.52
2023-04-10T19:57:46.044Z,84.74
2023-04-10T20:00:13.165Z,84.67
2023-04-10T20:02:40.349Z,84.64
2023-04-10T20:05:07.602Z,84.62
2023-04-10T20:07:34.208Z,84.60
2023-04-10T20:10:03.511Z,84.56
2023-04-10T20:12:33.182Z,84.74
2023-04-10T20:15:00.736Z,84.78
2023-04-10T20:17:28.008Z,84.78
2023-04-10T20:19:57.757Z,85.19
2023-04-10T20:22:24.578Z,84.88
2023-04-10T20:24:53.659Z,84.99
2023-04-10T20:27:20.598Z,85.24
2023-04-10T20:29:49.866Z,85.36
2023-04-10T20:32:19.184Z,85.46
2023-04-10T20:34:48.406Z,85.57
2023-04-10T20:37:18.783Z,85.38
2023-04-10T20:39:48.597Z,85.48
2023-04-10T20:42:17.081Z,85.68
2023-04-10T20:44:44.022Z,85.80
2023-04-10T20:47:11.043Z,85.91
2023-04-10T20:49:38.357Z,85.84
2023-04-10T20:52:06.234Z,86.37
2023-04-10T20:54:33.649Z,86.08
2023-04-10T20:57:06.222Z,86.32
2023-04-10T20:59:33.369Z,86.26
2023-04-10T21:02:00.256Z,86.34
2023-04-10T21:04:27.049Z,86.55
2023-04-10T21:06:53.795Z,86.45
2023-04-10T21:09:20.962Z,86.56
2023-04-10T21:11:47.634Z,86.81
2023-04-10T21:14:14.473Z,86.82
2023-04-10T21:16:42.786Z,86.94
2023-04-10T21:19:09.699Z,86.94
2023-04-10T21:21:36.430Z,86.94
2023-04-10T21:24:03.516Z,86.75
2023-04-10T21:26:30.284Z,86.86
2023-04-10T21:29:01.923Z,87.23
2023-04-10T21:31:28.776Z,86.58
2023-04-10T21:33:55.616Z,86.85
2023-04-10T21:36:22.389Z,86.75
2023-04-10T21:38:49.097Z,86.61
2023-04-10T21:41:15.869Z,86.62
2023-04-10T21:43:44.913Z,86.64
2023-04-10T21:46:12.034Z,86.77
2023-04-10T21:48:39.209Z,86.55
2023-04-10T21:51:08.683Z,86.74
2023-04-10T21:53:35.344Z,86.82
2023-04-10T21:56:08.168Z,86.87
2023-04-10T21:58:39.863Z,87.16
2023-04-10T22:01:08.375Z,87.07
2023-04-10T22:03:38.538Z,86.91
2023-04-10T22:06:05.450Z,86.94
2023-04-10T22:08:34.729Z,86.47
2023-04-10T22:11:01.578Z,86.75
2023-04-10T22:13:31.128Z,86.55
2023-04-10T22:15:58.848Z,86.40
2023-04-10T22:18:25.874Z,86.29
2023-04-10T22:20:52.878Z,85.97
2023-04-10T22:23:19.642Z,86.10
2023-04-10T22:25:48.739Z,86.06
2023-04-10T22:28:15.916Z,85.90
2023-04-10T22:30:42.622Z,85.94
2023-04-10T22:33:14.315Z,85.73
2023-04-10T22:35:41.083Z,85.63
2023-04-10T22:38:07.920Z,85.37
2023-04-10T22:40:34.720Z,85.53
2023-04-10T22:43:01.709Z,85.31
2023-04-10T22:45:28.640Z,85.42
2023-04-10T22:47:55.847Z,85.11
2023-04-10T22:50:22.685Z,85.00
2023-04-10T22:52:49.575Z,85.28
2023-04-10T22:55:16.532Z,85.07
2023-04-10T22:57:47.653Z,84.69
2023-04-10T23:00:15.020Z,84.42
2023-04-10T23:02:41.986Z,84.58
2023-04-10T23:05:09.341Z,84.56
2023-04-10T23:07:36.071Z,84.48
2023-04-10T23:10:02.963Z,84.50
2023-04-10T23:12:32.151Z,84.44
2023-04-10T23:15:01.308Z,84.38
2023-04-10T23:17:28.210Z,84.30
2023-04-10T23:19:57.339Z,84.22
2023-04-10T23:22:24.126Z,84.06
2023-04-10T23:24:54.851Z,84.11
2023-04-10T23:27:21.765Z,83.87
2023-04-10T23:29:51.844Z,83.89
2023-04-10T23:32:18.514Z,84.11
2023-04-10T23:34:46.387Z,83.89
2023-04-10T23:37:13.169Z,83.87
2023-04-10T23:39:39.997Z,83.56
2023-04-10T23:42:06.871Z,83.22
2023-04-10T23:44:33.542Z,83.50
2023-04-10T23:47:00.328Z,83.48
2023-04-10T23:49:27.197Z,83.13
2023-04-10T23:51:54.015Z,82.73
2023-04-10T23:54:23.038Z,82.90
2023-04-10T23:56:49.813Z,82.81
2023-04-10T23:59:17.264Z,82.74
